Nord Fuji — H8WX — position and weather

sailwx.info

Track history (hours):
 
Tides and Currents Weather Stations Pressure Air Temp Water Temp Dewpoint Dewpoint Depression Visibility Wind Speed Wind Dir Waves Ship Positions

Nord Fuji

Last reported at 2018-Jul-22 20:50 UTC. Time now 2018-Aug-21 04:20 UTC.
Position N 26°35' W 014°43'.
Warning: this ship's position is 29 days out of date.

Length 190 m; draft 10.1 m.

Type: Ship. MMSI: 357252000.

Date/timePositionNaut miles runAvg speedWind from/ knotsBaromVisibWave heightAir tempDewpointWater temp
2018-Jul-22 20:50N 26°35' W 014°43'912.2
2018-Jul-22 20:05N 26°42' W 014°37'212.1
2018-Jul-22 19:55N 26°44' W 014°36'512.0
2018-Jul-22 19:30N 26°48' W 014°33'712.5
2018-Jul-22 18:58N 26°53' W 014°28'612.6
2018-Jul-22 18:30N 26°58' W 014°24'1012.6
2018-Jul-22 17:41N 27°06' W 014°17'212.2
2018-Jul-22 17:30N 27°08' W 014°16'612.5
2018-Jul-22 17:00N 27°13' W 014°12'612.7
2018-Jul-22 16:30N 27°18' W 014°07'613.0
2018-Jul-22 16:00N 27°23' W 014°03'1313.2
2018-Jul-22 15:00N 27°34' W 013°55'713.2
2018-Jul-22 14:29N 27°39' W 013°50'612.9
2018-Jul-22 14:00N 27°44' W 013°46'612.8
2018-Jul-22 13:30N 27°49' W 013°41'612.7
2018-Jul-22 13:00N 27°55' W 013°37'612.8
2018-Jul-22 12:31N 27°60' W 013°33'912.7
2018-Jul-22 11:48N 28°07' W 013°27'412.8
2018-Jul-22 11:31N 28°10' W 013°25'612.6
2018-Jul-22 11:00N 28°15' W 013°21'612.4
2018-Jul-22 10:31N 28°20' W 013°17'712.4
2018-Jul-22 09:56N 28°26' W 013°12'512.3
2018-Jul-22 09:31N 28°31' W 013°08'612.3
2018-Jul-22 08:59N 28°36' W 013°04'2512.5
2018-Jul-22 07:01N 28°56' W 012°48'1312.5
2018-Jul-22 05:59N 29°07' W 012°39'612.3
2018-Jul-22 05:29N 29°12' W 012°35'612.6
2018-Jul-22 05:00N 29°16' W 012°31'612.7
2018-Jul-22 04:30N 29°21' W 012°26'612.8
2018-Jul-22 04:00N 29°27' W 012°23'712.7
2018-Jul-22 03:25N 29°33' W 012°18'4512.3
2018-Jul-21 23:46N 30°09' W 011°47'312.8
2018-Jul-21 23:30N 30°12' W 011°45'712.8
2018-Jul-21 23:00N 30°17' W 011°40'612.3
2018-Jul-21 22:30N 30°22' W 011°36'612.0
2018-Jul-21 22:00N 30°27' W 011°32'612.5
2018-Jul-21 21:30N 30°32' W 011°29'712.9
2018-Jul-21 20:58N 30°38' W 011°24'613.2
2018-Jul-21 20:31N 30°43' W 011°20'713.2
2018-Jul-21 19:59N 30°49' W 011°15'613.3
2018-Jul-21 19:31N 30°54' W 011°11'713.6
2018-Jul-21 19:00N 30°59' W 011°06'713.0
2018-Jul-21 18:30N 31°05' W 011°02'612.4
2018-Jul-21 18:00N 31°10' W 010°58'712.3
2018-Jul-21 17:27N 31°15' W 010°53'612.2
2018-Jul-21 16:59N 31°20' W 010°49'612.1
2018-Jul-21 16:30N 31°25' W 010°45'612.2
2018-Jul-21 16:00N 31°30' W 010°41'912.5
2018-Jul-21 15:15N 31°37' W 010°34'912.9
2018-Jul-21 14:35N 31°44' W 010°29'113.1
2018-Jul-21 14:30N 31°45' W 010°28'1513.1
2018-Jul-21 13:23N 31°57' W 010°19'15212.8
2018-Jul-21 01:31N 33°57' W 008°27'912.6
2018-Jul-21 00:47N 34°03' W 008°19'612.4
2018-Jul-21 00:18N 34°07' W 008°13'412.5
2018-Jul-21 00:00N 34°10' W 008°10'8312.7
2018-Jul-20 17:29N 35°12' W 007°03'  
Track history (hours):
 
Tides and Currents Weather Stations Pressure Air Temp Water Temp Dewpoint Dewpoint Depression Visibility Wind Speed Wind Dir Waves Ship Positions

Nord Fuji

Last reported at 2018-Jul-22 20:50 UTC. Time now 2018-Aug-21 04:20 UTC.
Position N 26°35' W 014°43'.
Warning: this ship's position is 29 days out of date.

Length 190 m; draft 10.1 m.

Type: Ship. MMSI: 357252000.

Date/timePositionNaut miles runAvg speedWind from/ knotsBaromVisibWave heightAir tempDewpointWater temp
2018-Jul-22 20:50N 26°35' W 014°43'912.2
2018-Jul-22 20:05N 26°42' W 014°37'212.1
2018-Jul-22 19:55N 26°44' W 014°36'512.0
2018-Jul-22 19:30N 26°48' W 014°33'712.5
2018-Jul-22 18:58N 26°53' W 014°28'612.6
2018-Jul-22 18:30N 26°58' W 014°24'1012.6
2018-Jul-22 17:41N 27°06' W 014°17'212.2
2018-Jul-22 17:30N 27°08' W 014°16'612.5
2018-Jul-22 17:00N 27°13' W 014°12'612.7
2018-Jul-22 16:30N 27°18' W 014°07'613.0
2018-Jul-22 16:00N 27°23' W 014°03'1313.2
2018-Jul-22 15:00N 27°34' W 013°55'713.2
2018-Jul-22 14:29N 27°39' W 013°50'612.9
2018-Jul-22 14:00N 27°44' W 013°46'612.8
2018-Jul-22 13:30N 27°49' W 013°41'612.7
2018-Jul-22 13:00N 27°55' W 013°37'612.8
2018-Jul-22 12:31N 27°60' W 013°33'912.7
2018-Jul-22 11:48N 28°07' W 013°27'412.8
2018-Jul-22 11:31N 28°10' W 013°25'612.6
2018-Jul-22 11:00N 28°15' W 013°21'612.4
2018-Jul-22 10:31N 28°20' W 013°17'712.4
2018-Jul-22 09:56N 28°26' W 013°12'512.3
2018-Jul-22 09:31N 28°31' W 013°08'612.3
2018-Jul-22 08:59N 28°36' W 013°04'2512.5
2018-Jul-22 07:01N 28°56' W 012°48'1312.5
2018-Jul-22 05:59N 29°07' W 012°39'612.3
2018-Jul-22 05:29N 29°12' W 012°35'612.6
2018-Jul-22 05:00N 29°16' W 012°31'612.7
2018-Jul-22 04:30N 29°21' W 012°26'612.8
2018-Jul-22 04:00N 29°27' W 012°23'712.7
2018-Jul-22 03:25N 29°33' W 012°18'4512.3
2018-Jul-21 23:46N 30°09' W 011°47'312.8
2018-Jul-21 23:30N 30°12' W 011°45'712.8
2018-Jul-21 23:00N 30°17' W 011°40'612.3
2018-Jul-21 22:30N 30°22' W 011°36'612.0
2018-Jul-21 22:00N 30°27' W 011°32'612.5
2018-Jul-21 21:30N 30°32' W 011°29'712.9
2018-Jul-21 20:58N 30°38' W 011°24'613.2
2018-Jul-21 20:31N 30°43' W 011°20'713.2
2018-Jul-21 19:59N 30°49' W 011°15'613.3
2018-Jul-21 19:31N 30°54' W 011°11'713.6
2018-Jul-21 19:00N 30°59' W 011°06'713.0
2018-Jul-21 18:30N 31°05' W 011°02'612.4
2018-Jul-21 18:00N 31°10' W 010°58'712.3
2018-Jul-21 17:27N 31°15' W 010°53'612.2
2018-Jul-21 16:59N 31°20' W 010°49'612.1
2018-Jul-21 16:30N 31°25' W 010°45'612.2
2018-Jul-21 16:00N 31°30' W 010°41'912.5
2018-Jul-21 15:15N 31°37' W 010°34'912.9
2018-Jul-21 14:35N 31°44' W 010°29'113.1
2018-Jul-21 14:30N 31°45' W 010°28'1513.1
2018-Jul-21 13:23N 31°57' W 010°19'15212.8
2018-Jul-21 01:31N 33°57' W 008°27'912.6
2018-Jul-21 00:47N 34°03' W 008°19'612.4
2018-Jul-21 00:18N 34°07' W 008°13'412.5
2018-Jul-21 00:00N 34°10' W 008°10'8312.7
2018-Jul-20 17:29N 35°12' W 007°03'  

Dump ship's entire track history